createdAt,value
2019-04-16T00:00:19.755Z,0
2019-04-16T00:01:20.468Z,0
2019-04-16T00:02:21.045Z,0
2019-04-16T00:03:17.472Z,0
2019-04-16T00:04:17.693Z,0
2019-04-16T00:05:17.676Z,0
2019-04-16T00:06:17.658Z,0
2019-04-16T00:07:17.404Z,0
2019-04-16T00:08:34.258Z,0
2019-04-16T00:09:17.360Z,0
2019-04-16T00:10:17.589Z,0
2019-04-16T00:11:17.567Z,0
2019-04-16T00:12:17.555Z,0
2019-04-16T00:13:17.284Z,0
2019-04-16T00:14:17.277Z,0
2019-04-16T00:15:17.507Z,0
2019-04-16T00:16:20.698Z,0
2019-04-16T00:17:20.082Z,0
2019-04-16T00:18:20.716Z,0
2019-04-16T00:19:17.193Z,0
2019-04-16T00:20:17.413Z,0
2019-04-16T00:21:17.897Z,0
2019-04-16T00:22:19.550Z,0
2019-04-16T00:23:17.359Z,0
2019-04-16T00:24:20.778Z,0
2019-04-16T00:25:17.083Z,0
2019-04-16T00:26:17.309Z,0
2019-04-16T00:27:17.289Z,0
2019-04-16T00:28:17.279Z,0
2019-04-16T00:29:17.255Z,0
2019-04-16T00:30:17.241Z,0
2019-04-16T00:31:17.219Z,0
2019-04-16T00:32:17.221Z,0
2019-04-16T00:33:18.517Z,0
2019-04-16T00:34:20.711Z,0
2019-04-16T00:35:20.298Z,0
2019-04-16T00:36:18.037Z,0
2019-04-16T00:37:20.238Z,0
2019-04-16T00:38:17.109Z,0
2019-04-16T00:39:16.595Z,0
2019-04-16T00:40:17.070Z,0
2019-04-16T00:41:17.048Z,0
2019-04-16T00:42:17.031Z,0
2019-04-16T00:43:16.774Z,0
2019-04-16T00:44:17.101Z,0
2019-04-16T00:45:16.977Z,0
2019-04-16T00:46:19.177Z,0
2019-04-16T00:47:16.945Z,0
2019-04-16T00:48:16.939Z,0
2019-04-16T00:49:16.909Z,0
2019-04-16T00:50:16.655Z,0
2019-04-16T00:51:16.641Z,0
2019-04-16T00:52:16.618Z,0
2019-04-16T00:53:16.597Z,0
2019-04-16T00:54:18.444Z,0
2019-04-16T00:55:20.850Z,0
2019-04-16T00:56:20.465Z,0
2019-04-16T00:57:20.138Z,0
2019-04-16T00:58:19.433Z,0
2019-04-16T00:59:16.745Z,0
2019-04-16T01:00:16.745Z,0
2019-04-16T01:01:16.707Z,0
2019-04-16T01:02:16.692Z,0
2019-04-16T01:03:16.453Z,0
2019-04-16T01:04:16.673Z,0
2019-04-16T01:05:16.396Z,0
2019-04-16T01:06:16.627Z,0
2019-04-16T01:07:16.610Z,0
2019-04-16T01:08:16.600Z,0
2019-04-16T01:09:16.571Z,0
2019-04-16T01:10:16.066Z,0
2019-04-16T01:11:16.293Z,0
2019-04-16T01:12:16.522Z,0
2019-04-16T01:13:16.508Z,0
2019-04-16T01:14:16.244Z,0
2019-04-16T01:15:16.223Z,0
2019-04-16T01:16:16.449Z,0
2019-04-16T01:17:16.451Z,0
2019-04-16T01:18:16.183Z,0
2019-04-16T01:19:17.992Z,0
2019-04-16T01:20:20.032Z,0
2019-04-16T01:21:20.996Z,0
2019-04-16T01:22:20.709Z,0
2019-04-16T01:23:20.074Z,0
2019-04-16T01:24:17.465Z,0
2019-04-16T01:25:16.303Z,0
2019-04-16T01:26:16.292Z,0
2019-04-16T01:27:16.022Z,0
2019-04-16T01:28:16.000Z,0
2019-04-16T01:29:16.237Z,0
2019-04-16T01:30:16.218Z,0
2019-04-16T01:31:16.241Z,0
2019-04-16T01:32:18.859Z,0
2019-04-16T01:33:19.982Z,0
2019-04-16T01:34:20.143Z,0
2019-04-16T01:35:18.452Z,0
2019-04-16T01:36:15.948Z,0
2019-04-16T01:37:16.118Z,0
2019-04-16T01:38:15.842Z,0
2019-04-16T01:39:24.944Z,0
2019-04-16T01:40:18.339Z,0
2019-04-16T01:41:15.787Z,0
2019-04-16T01:42:16.022Z,0
2019-04-16T01:43:15.754Z,0
2019-04-16T01:44:16.010Z,0
2019-04-16T01:45:15.982Z,0
2019-04-16T01:46:15.493Z,0
2019-04-16T01:47:15.939Z,0
2019-04-16T01:48:15.679Z,0
2019-04-16T01:49:18.084Z,0
2019-04-16T01:50:19.952Z,0
2019-04-16T01:51:19.757Z,0
2019-04-16T01:52:18.644Z,0
2019-04-16T01:53:18.280Z,0
2019-04-16T01:54:15.954Z,0
2019-04-16T01:55:15.871Z,0
2019-04-16T01:56:16.049Z,0
2019-04-16T01:57:15.835Z,0
2019-04-16T01:58:15.804Z,0
2019-04-16T01:59:15.613Z,0
2019-04-16T02:00:16.108Z,0
2019-04-16T02:01:18.340Z,0
2019-04-16T02:02:19.694Z,0
2019-04-16T02:03:20.182Z,0
2019-04-16T02:04:19.491Z,0
2019-04-16T02:05:15.631Z,0
2019-04-16T02:06:15.637Z,0
2019-04-16T02:07:15.598Z,0
2019-04-16T02:08:15.346Z,0
2019-04-16T02:09:34.042Z,0
2019-04-16T02:10:15.663Z,0
2019-04-16T02:11:17.985Z,0
2019-04-16T02:12:20.590Z,0
2019-04-16T02:13:19.914Z,0
2019-04-16T02:14:22.194Z,0
2019-04-16T02:15:15.491Z,0
2019-04-16T02:16:15.466Z,0
2019-04-16T02:17:15.432Z,0
2019-04-16T02:18:15.414Z,0
2019-04-16T02:19:15.401Z,0
2019-04-16T02:20:15.131Z,0
2019-04-16T02:21:17.938Z,0
2019-04-16T02:22:19.689Z,0
2019-04-16T02:23:18.572Z,0
2019-04-16T02:24:18.516Z,0
2019-04-16T02:25:18.760Z,0
2019-04-16T02:26:15.182Z,0
2019-04-16T02:27:15.402Z,0
2019-04-16T02:28:15.356Z,0
2019-04-16T02:29:15.232Z,0
2019-04-16T02:30:15.537Z,0
2019-04-16T02:31:21.145Z,0
2019-04-16T02:32:15.197Z,0
2019-04-16T02:33:15.297Z,0
2019-04-16T02:34:15.348Z,0
2019-04-16T02:35:15.233Z,0
2019-04-16T02:36:15.418Z,0
2019-04-16T02:37:15.163Z,0
2019-04-16T02:38:20.006Z,0
2019-04-16T02:39:15.057Z,0
2019-04-16T02:40:22.218Z,0
2019-04-16T02:41:14.832Z,0
2019-04-16T02:42:15.016Z,0
2019-04-16T02:43:15.634Z,0
2019-04-16T02:44:22.144Z,0
2019-04-16T02:45:15.011Z,0
2019-04-16T02:46:14.701Z,0
2019-04-16T02:47:15.840Z,0
2019-04-16T02:48:22.679Z,0
2019-04-16T02:49:15.097Z,0
2019-04-16T02:50:14.899Z,0
2019-04-16T02:51:16.059Z,0
2019-04-16T02:52:22.409Z,0
2019-04-16T02:53:15.051Z,0
2019-04-16T02:54:14.592Z,0
2019-04-16T02:55:17.618Z,0
2019-04-16T02:56:22.587Z,0
2019-04-16T02:57:15.085Z,0
2019-04-16T02:58:14.787Z,0
2019-04-16T02:59:19.850Z,0
2019-04-16T03:00:17.528Z,0
2019-04-16T03:01:14.866Z,0
2019-04-16T03:02:14.289Z,0
2019-04-16T03:03:14.690Z,0
2019-04-16T03:04:14.733Z,0
2019-04-16T03:05:14.868Z,0
2019-04-16T03:06:14.609Z,0
2019-04-16T03:07:14.654Z,0
2019-04-16T03:08:14.509Z,0
2019-04-16T03:09:16.238Z,0
2019-04-16T03:10:19.547Z,0
2019-04-16T03:11:18.661Z,0
2019-04-16T03:12:14.024Z,0
2019-04-16T03:13:14.493Z,0
2019-04-16T03:14:14.231Z,0
2019-04-16T03:15:14.666Z,0
2019-04-16T03:16:14.910Z,0
2019-04-16T03:17:18.171Z,0
2019-04-16T03:18:18.921Z,0
2019-04-16T03:19:18.820Z,0
2019-04-16T03:20:14.443Z,0
2019-04-16T03:21:14.374Z,0
2019-04-16T03:22:14.366Z,0
2019-04-16T03:23:14.341Z,0
2019-04-16T03:24:16.498Z,0
2019-04-16T03:25:19.999Z,0
2019-04-16T03:26:19.177Z,0
2019-04-16T03:27:14.421Z,0
2019-04-16T03:28:14.257Z,0
2019-04-16T03:29:14.237Z,0
2019-04-16T03:30:14.127Z,0
2019-04-16T03:31:25.954Z,0
2019-04-16T03:32:20.328Z,0
2019-04-16T03:33:21.242Z,0
2019-04-16T03:34:14.169Z,0
2019-04-16T03:35:14.131Z,0
2019-04-16T03:36:14.286Z,0
2019-04-16T03:37:14.139Z,0
2019-04-16T03:38:14.080Z,0
2019-04-16T03:39:19.520Z,0
2019-04-16T03:40:30.228Z,0
2019-04-16T03:41:14.031Z,0
2019-04-16T03:42:13.766Z,0
2019-04-16T03:43:14.252Z,0
2019-04-16T03:44:13.744Z,4
2019-04-16T03:45:16.801Z,4
2019-04-16T03:46:19.595Z,0
2019-04-16T03:47:15.602Z,4
2019-04-16T03:48:14.160Z,0
2019-04-16T03:49:13.661Z,4
2019-04-16T03:50:13.880Z,4
2019-04-16T03:51:13.874Z,4
2019-04-16T03:52:16.421Z,8
2019-04-16T03:53:18.964Z,8
2019-04-16T03:54:13.894Z,12
2019-04-16T03:55:13.560Z,12
2019-04-16T03:56:13.541Z,16
2019-04-16T03:57:13.935Z,16
2019-04-16T03:58:14.452Z,20
2019-04-16T03:59:17.994Z,20
2019-04-16T04:00:18.589Z,24
2019-04-16T04:01:17.500Z,28
2019-04-16T04:02:15.381Z,32
2019-04-16T04:03:13.426Z,40
2019-04-16T04:04:13.880Z,44
2019-04-16T04:05:14.612Z,48
2019-04-16T04:06:14.536Z,56
2019-04-16T04:07:18.632Z,64
2019-04-16T04:08:19.190Z,76
2019-04-16T04:09:13.665Z,84
2019-04-16T04:10:13.376Z,96
2019-04-16T04:11:17.642Z,104
2019-04-16T04:12:17.023Z,116
2019-04-16T04:13:17.221Z,128
2019-04-16T04:14:13.551Z,144
2019-04-16T04:15:13.792Z,160
2019-04-16T04:16:13.448Z,172
2019-04-16T04:17:14.660Z,192
2019-04-16T04:18:17.717Z,212
2019-04-16T04:19:19.156Z,232
2019-04-16T04:20:14.549Z,252
2019-04-16T04:21:13.657Z,272
2019-04-16T04:22:13.366Z,292
2019-04-16T04:23:13.611Z,316
2019-04-16T04:24:13.555Z,340
2019-04-16T04:25:13.728Z,368
2019-04-16T04:26:16.390Z,396
2019-04-16T04:27:21.384Z,424
2019-04-16T04:28:18.419Z,452
2019-04-16T04:29:13.774Z,480
2019-04-16T04:30:13.218Z,508
2019-04-16T04:31:13.350Z,544
2019-04-16T04:32:12.696Z,576
2019-04-16T04:33:16.510Z,612
2019-04-16T04:34:21.628Z,648
2019-04-16T04:35:13.178Z,676
2019-04-16T04:36:13.119Z,712
2019-04-16T04:37:13.055Z,744
2019-04-16T04:38:13.200Z,784
2019-04-16T04:39:20.461Z,820
2019-04-16T04:40:18.123Z,852
2019-04-16T04:41:13.040Z,888
2019-04-16T04:42:13.451Z,924
2019-04-16T04:43:12.996Z,960
2019-04-16T04:44:12.986Z,1000
2019-04-16T04:45:17.007Z,1036
2019-04-16T04:46:18.207Z,1076
2019-04-16T04:47:15.466Z,1104
2019-04-16T04:48:15.881Z,1144
2019-04-16T04:49:12.895Z,1180
2019-04-16T04:50:13.080Z,1220
2019-04-16T04:51:15.306Z,1256
2019-04-16T04:52:16.749Z,1296
2019-04-16T04:53:15.556Z,1324
2019-04-16T04:54:12.809Z,1360
2019-04-16T04:55:12.551Z,1396
2019-04-16T04:56:12.778Z,1428
2019-04-16T04:57:12.905Z,1460
2019-04-16T04:58:12.856Z,1492
2019-04-16T04:59:13.432Z,1528
2019-04-16T05:00:15.253Z,1564
2019-04-16T05:01:17.111Z,1596
2019-04-16T05:02:18.373Z,1632
2019-04-16T05:03:17.490Z,1664
2019-04-16T05:04:12.643Z,1696
2019-04-16T05:05:12.386Z,1732
2019-04-16T05:06:12.370Z,1764
2019-04-16T05:07:12.591Z,1792
2019-04-16T05:08:12.333Z,1824
2019-04-16T05:09:12.565Z,1860
2019-04-16T05:10:15.403Z,1892
2019-04-16T05:11:17.574Z,1920
2019-04-16T05:12:17.754Z,1952
2019-04-16T05:13:12.500Z,1976
2019-04-16T05:14:12.572Z,2008
2019-04-16T05:15:12.505Z,2036
2019-04-16T05:16:13.993Z,2068
2019-04-16T05:17:14.482Z,2096
2019-04-16T05:18:14.968Z,2124
2019-04-16T05:19:16.504Z,2160
2019-04-16T05:20:17.586Z,2188
2019-04-16T05:21:12.393Z,2216
2019-04-16T05:22:12.261Z,2248
2019-04-16T05:23:12.361Z,2272
2019-04-16T05:24:12.313Z,2300
2019-04-16T05:25:12.610Z,2324
2019-04-16T05:26:14.660Z,2352
2019-04-16T05:27:15.403Z,2380
2019-04-16T05:28:16.617Z,2404
2019-04-16T05:29:15.935Z,2424
2019-04-16T05:30:12.676Z,2444
2019-04-16T05:31:12.672Z,2468
2019-04-16T05:32:11.938Z,2488
2019-04-16T05:33:13.065Z,2512
2019-04-16T05:34:17.122Z,2532
2019-04-16T05:35:16.411Z,2556
2019-04-16T05:36:16.155Z,2576
2019-04-16T05:37:12.112Z,2592
2019-04-16T05:38:12.095Z,2612
2019-04-16T05:39:12.089Z,2636
2019-04-16T05:40:12.066Z,2660
2019-04-16T05:41:25.805Z,2684
2019-04-16T05:42:12.036Z,2704
2019-04-16T05:43:12.248Z,2724
2019-04-16T05:44:11.994Z,2748
2019-04-16T05:45:13.806Z,2768
2019-04-16T05:46:16.242Z,2788
2019-04-16T05:47:16.706Z,2804
2019-04-16T05:48:11.944Z,2824
2019-04-16T05:49:11.912Z,2844
2019-04-16T05:50:11.900Z,2860
2019-04-16T05:51:11.881Z,2884
2019-04-16T05:52:11.862Z,2904
2019-04-16T05:53:18.162Z,2928
2019-04-16T05:54:16.345Z,2956
2019-04-16T05:55:16.252Z,2988
2019-04-16T05:56:11.800Z,3000
2019-04-16T05:57:11.792Z,3020
2019-04-16T05:58:11.775Z,3036
2019-04-16T05:59:11.540Z,3032
2019-04-16T06:00:17.167Z,3036
2019-04-16T06:01:15.456Z,3056
2019-04-16T06:02:14.598Z,3068
2019-04-16T06:03:11.690Z,3076
2019-04-16T06:04:11.744Z,3092
2019-04-16T06:05:11.698Z,3100
2019-04-16T06:06:11.407Z,3120
2019-04-16T06:07:14.743Z,3132
2019-04-16T06:08:16.024Z,3152
2019-04-16T06:09:16.934Z,3172
2019-04-16T06:10:19.718Z,3280
2019-04-16T06:11:11.585Z,3320
2019-04-16T06:12:15.382Z,3248
2019-04-16T06:13:16.336Z,3244
2019-04-16T06:14:16.543Z,3248
2019-04-16T06:15:11.514Z,3260
2019-04-16T06:16:11.501Z,3284
2019-04-16T06:17:11.238Z,3300
2019-04-16T06:18:12.830Z,3296
2019-04-16T06:19:15.734Z,3308
2019-04-16T06:20:11.453Z,3328
2019-04-16T06:21:11.532Z,3352
2019-04-16T06:22:10.939Z,3372
2019-04-16T06:23:11.389Z,3376
2019-04-16T06:24:11.457Z,3392
2019-04-16T06:25:16.538Z,3408
2019-04-16T06:26:17.298Z,3428
2019-04-16T06:27:11.333Z,3436
2019-04-16T06:28:11.077Z,3456
2019-04-16T06:29:11.307Z,3472
2019-04-16T06:30:11.295Z,3480
2019-04-16T06:31:14.790Z,3492
2019-04-16T06:32:15.755Z,3508
2019-04-16T06:33:11.261Z,3524
2019-04-16T06:34:11.303Z,3740
2019-04-16T06:35:11.227Z,4212
2019-04-16T06:36:11.208Z,3940
2019-04-16T06:37:11.196Z,4132
2019-04-16T06:38:11.195Z,4848
2019-04-16T06:39:11.162Z,5432
2019-04-16T06:40:11.152Z,5792
2019-04-16T06:41:11.159Z,6560
2019-04-16T06:42:11.126Z,7292
2019-04-16T06:43:11.108Z,7100
2019-04-16T06:44:11.450Z,7256
2019-04-16T06:45:12.825Z,8872
2019-04-16T06:46:13.844Z,10828
2019-04-16T06:47:15.722Z,11860
2019-04-16T06:48:15.375Z,11772
2019-04-16T06:49:10.777Z,11192
2019-04-16T06:50:11.161Z,11092
2019-04-16T06:51:14.222Z,11704
2019-04-16T06:52:15.748Z,12620
2019-04-16T06:53:10.743Z,13764
2019-04-16T06:54:11.286Z,14660
2019-04-16T06:55:11.528Z,15180
2019-04-16T06:56:15.255Z,15616
2019-04-16T06:57:14.101Z,16256
2019-04-16T06:58:12.435Z,16672
2019-04-16T06:59:10.664Z,17600
2019-04-16T07:00:14.227Z,19712
2019-04-16T07:01:14.007Z,21440
2019-04-16T07:02:14.822Z,27232
2019-04-16T07:03:10.632Z,34752
2019-04-16T07:04:13.988Z,42560
2019-04-16T07:05:10.880Z,45632
2019-04-16T07:06:11.578Z,39232
2019-04-16T07:07:15.210Z,21856
2019-04-16T07:08:10.850Z,8288
2019-04-16T07:09:10.854Z,5696
2019-04-16T07:10:10.829Z,5252
2019-04-16T07:11:10.820Z,5004
2019-04-16T07:12:10.819Z,4832
2019-04-16T07:13:15.278Z,4704
2019-04-16T07:14:11.465Z,4624
2019-04-16T07:15:10.321Z,4552
2019-04-16T07:16:10.802Z,4496
2019-04-16T07:17:10.792Z,4444
2019-04-16T07:18:13.221Z,4396
2019-04-16T07:19:16.723Z,4368
2019-04-16T07:20:15.599Z,4348
2019-04-16T07:21:10.777Z,4340
2019-04-16T07:22:11.385Z,4340
2019-04-16T07:23:10.763Z,4340
2019-04-16T07:24:10.763Z,4336
2019-04-16T07:25:13.014Z,4340
2019-04-16T07:26:16.250Z,4340
2019-04-16T07:27:11.280Z,4344
2019-04-16T07:28:10.815Z,4340
2019-04-16T07:29:11.050Z,4336
2019-04-16T07:30:19.124Z,4332
2019-04-16T07:31:25.757Z,4336
2019-04-16T07:32:11.028Z,4332
2019-04-16T07:33:10.729Z,4328
2019-04-16T07:34:10.792Z,4324
2019-04-16T07:35:10.545Z,4312
2019-04-16T07:36:10.469Z,4304
2019-04-16T07:37:10.710Z,4300
2019-04-16T07:38:16.458Z,4296
2019-04-16T07:39:28.614Z,4296
2019-04-16T07:40:15.813Z,4300
2019-04-16T07:41:19.423Z,4300
2019-04-16T07:43:49.617Z,4296
2019-04-16T07:44:04.016Z,4300
2019-04-16T07:45:02.541Z,4300
2019-04-16T07:45:59.901Z,4304
2019-04-16T07:46:59.978Z,4304
2019-04-16T07:48:00.088Z,4304
2019-04-16T07:49:02.435Z,4308
2019-04-16T07:50:06.384Z,4308
2019-04-16T07:51:01.509Z,4308
2019-04-16T07:51:59.849Z,4304
2019-04-16T07:52:59.840Z,4304
2019-04-16T07:54:02.224Z,4308
2019-04-16T07:54:59.826Z,4304
2019-04-16T07:55:59.984Z,4300
2019-04-16T07:56:59.578Z,4292
2019-04-16T07:57:59.937Z,4288
2019-04-16T07:59:05.223Z,4284
2019-04-16T07:59:59.700Z,4284
2019-04-16T08:00:59.791Z,4276
2019-04-16T08:02:00.075Z,4268
2019-04-16T08:03:01.392Z,4268
2019-04-16T08:04:05.895Z,4264
2019-04-16T08:04:59.771Z,4264
2019-04-16T08:05:59.886Z,4260
2019-04-16T08:06:59.903Z,4256
2019-04-16T08:08:01.065Z,4252
2019-04-16T08:09:03.622Z,4248
2019-04-16T08:10:04.361Z,4244
2019-04-16T08:10:59.487Z,4232
2019-04-16T08:11:59.943Z,4232
2019-04-16T08:13:04.568Z,4228
2019-04-16T08:13:59.720Z,4232
2019-04-16T08:15:15.445Z,4228
2019-04-16T08:16:01.699Z,4228
2019-04-16T08:16:59.682Z,4228
2019-04-16T08:17:59.893Z,4220
2019-04-16T08:18:59.678Z,4212
2019-04-16T08:20:02.679Z,4212
2019-04-16T08:21:15.195Z,4208
2019-04-16T08:21:59.674Z,4212
2019-04-16T08:22:59.725Z,4204
2019-04-16T08:24:00.585Z,4192
2019-04-16T08:25:08.041Z,4184
2019-04-16T08:26:16.146Z,4184
2019-04-16T08:26:59.611Z,4188
2019-04-16T08:28:01.264Z,4192
2019-04-16T08:28:59.592Z,4188
2019-04-16T08:30:05.077Z,4188
2019-04-16T08:30:59.599Z,4184
2019-04-16T08:31:59.571Z,4180
2019-04-16T08:32:59.563Z,4168
2019-04-16T08:33:59.556Z,4156
2019-04-16T08:34:59.571Z,4148
2019-04-16T08:35:59.718Z,4148
2019-04-16T08:36:59.701Z,4144
2019-04-16T08:38:03.387Z,4128
2019-04-16T08:38:59.514Z,4132
2019-04-16T08:39:59.266Z,4132
2019-04-16T08:40:59.251Z,4124
2019-04-16T08:42:00.198Z,4112
2019-04-16T08:43:04.203Z,4096
2019-04-16T08:44:05.204Z,4100
2019-04-16T08:44:59.471Z,4100
2019-04-16T08:45:59.461Z,4096
2019-04-16T08:47:01.534Z,4096
2019-04-16T08:47:59.452Z,4064
2019-04-16T08:49:01.456Z,4092
2019-04-16T08:50:01.972Z,4088
2019-04-16T08:51:04.853Z,4092
2019-04-16T08:51:59.420Z,4088
2019-04-16T08:52:59.412Z,4084
2019-04-16T08:53:59.412Z,4076
2019-04-16T08:55:02.089Z,4068
2019-04-16T08:55:59.151Z,4072
2019-04-16T08:56:59.137Z,4076
2019-04-16T08:57:59.150Z,4076
2019-04-16T08:59:09.421Z,4072
2019-04-16T08:59:59.227Z,4068
2019-04-16T09:00:59.122Z,4068
2019-04-16T09:02:01.941Z,4072
2019-04-16T09:03:02.704Z,4068
2019-04-16T09:04:04.073Z,4060
2019-04-16T09:04:59.319Z,4056
2019-04-16T09:05:59.315Z,4056
2019-04-16T09:07:19.459Z,4048
2019-04-16T09:08:14.259Z,4044
2019-04-16T09:09:18.344Z,4040
2019-04-16T09:10:23.181Z,4032
2019-04-16T09:11:00.205Z,4028
2019-04-16T09:11:59.270Z,4028
2019-04-16T09:13:10.791Z,4028
2019-04-16T09:13:59.294Z,4024
2019-04-16T09:15:03.247Z,4008
2019-04-16T09:15:59.239Z,4020
2019-04-16T09:16:59.596Z,4012
2019-04-16T09:17:58.992Z,4012
2019-04-16T09:18:59.225Z,4008
2019-04-16T09:20:01.279Z,3996
2019-04-16T09:20:59.341Z,3992
2019-04-16T09:21:59.198Z,4000
2019-04-16T09:23:03.610Z,4000
2019-04-16T09:24:11.254Z,4000
2019-04-16T09:24:58.936Z,3996
2019-04-16T09:26:16.055Z,3984
2019-04-16T09:27:02.513Z,3980
2019-04-16T09:28:02.481Z,3976
2019-04-16T09:29:00.527Z,3968
2019-04-16T09:29:59.146Z,3968
2019-04-16T09:30:59.250Z,3972
2019-04-16T09:32:03.256Z,3956
2019-04-16T09:33:02.928Z,3960
2019-04-16T09:34:08.176Z,3964
2019-04-16T09:35:20.460Z,3960
2019-04-16T09:35:59.110Z,3956
2019-04-16T09:36:59.092Z,3928
2019-04-16T09:37:59.083Z,3924
2019-04-16T09:38:59.095Z,3920
2019-04-16T09:39:59.071Z,3916
2019-04-16T09:40:59.083Z,3920
2019-04-16T09:41:59.085Z,3916
2019-04-16T09:42:58.802Z,3912
2019-04-16T09:44:03.584Z,3900
2019-04-16T09:45:01.666Z,3896
2019-04-16T09:46:20.768Z,3896
2019-04-16T09:47:07.545Z,3888
2019-04-16T09:48:02.290Z,3884
2019-04-16T09:48:59.011Z,3876
2019-04-16T09:49:58.992Z,3868
2019-04-16T09:50:58.998Z,3856
2019-04-16T09:51:58.982Z,3848
2019-04-16T09:53:04.343Z,3844
2019-04-16T09:53:58.975Z,3840
2019-04-16T09:54:58.726Z,3836
2019-04-16T09:55:58.967Z,3820
2019-04-16T09:57:02.390Z,3824
2019-04-16T09:57:58.695Z,3816
2019-04-16T09:58:58.930Z,3820
2019-04-16T09:59:58.934Z,3812
2019-04-16T10:00:58.911Z,3812
2019-04-16T10:01:58.916Z,3804
2019-04-16T10:03:02.247Z,3804
2019-04-16T10:04:00.821Z,3792
2019-04-16T10:04:58.959Z,3804
2019-04-16T10:05:58.880Z,3796
2019-04-16T10:06:58.976Z,3800
2019-04-16T10:08:01.751Z,3812
2019-04-16T10:09:01.413Z,3828
2019-04-16T10:10:01.753Z,3808
2019-04-16T10:11:05.952Z,3788
2019-04-16T10:12:04.898Z,3784
2019-04-16T10:12:58.932Z,3768
2019-04-16T10:13:58.847Z,3740
2019-04-16T10:14:58.814Z,3724
2019-04-16T10:16:00.451Z,3712
2019-04-16T10:16:58.893Z,3708
2019-04-16T10:18:01.374Z,3700
2019-04-16T10:18:58.837Z,3696
2019-04-16T10:19:58.557Z,3700
2019-04-16T10:20:58.806Z,3696
2019-04-16T10:22:01.711Z,3704
2019-04-16T10:22:58.764Z,3700
2019-04-16T10:23:58.788Z,3692
2019-04-16T10:24:58.800Z,3676
2019-04-16T10:25:58.799Z,3672
2019-04-16T10:27:06.794Z,3664
2019-04-16T10:27:58.318Z,3656
2019-04-16T10:28:58.750Z,3668
2019-04-16T10:29:58.773Z,3656
2019-04-16T10:30:58.756Z,3652
2019-04-16T10:31:58.750Z,3648
2019-04-16T10:32:58.700Z,3644
2019-04-16T10:33:58.696Z,3640
2019-04-16T10:34:58.462Z,3640
2019-04-16T10:36:00.959Z,3624
2019-04-16T10:36:58.696Z,3616
2019-04-16T10:37:58.480Z,3600
2019-04-16T10:38:58.673Z,3588
2019-04-16T10:39:58.676Z,3580
2019-04-16T10:40:58.664Z,3576
2019-04-16T10:42:01.251Z,3576
2019-04-16T10:42:58.682Z,3572
2019-04-16T10:43:58.739Z,3564
2019-04-16T10:44:58.635Z,3572
2019-04-16T10:45:58.420Z,3556
2019-04-16T10:46:58.640Z,3548
2019-04-16T10:47:58.579Z,3540
2019-04-16T10:48:58.103Z,3528
2019-04-16T10:49:58.333Z,3524
2019-04-16T10:50:58.588Z,3520
2019-04-16T10:51:58.718Z,3520
2019-04-16T10:53:02.991Z,3516
2019-04-16T10:53:58.574Z,3508
2019-04-16T10:54:58.781Z,3512
2019-04-16T10:55:58.623Z,3512
2019-04-16T10:57:04.248Z,3508
2019-04-16T10:57:58.564Z,3500
2019-04-16T10:58:58.574Z,3492
2019-04-16T10:59:58.280Z,3492
2019-04-16T11:00:58.803Z,3496
2019-04-16T11:01:58.514Z,3488
2019-04-16T11:02:58.586Z,3488
2019-04-16T11:03:58.482Z,3480
2019-04-16T11:05:01.912Z,3468
2019-04-16T11:06:03.886Z,3480
2019-04-16T11:06:58.487Z,3480
2019-04-16T11:07:58.462Z,3480
2019-04-16T11:08:58.539Z,3476
2019-04-16T11:09:58.266Z,3464
2019-04-16T11:10:58.204Z,3460
2019-04-16T11:11:58.559Z,3444
2019-04-16T11:12:58.465Z,3440
2019-04-16T11:14:06.870Z,3440
2019-04-16T11:14:58.223Z,3436
2019-04-16T11:15:58.397Z,3436
2019-04-16T11:16:58.473Z,3440
2019-04-16T11:17:58.153Z,3456
2019-04-16T11:19:01.951Z,3452
2019-04-16T11:20:04.941Z,3452
2019-04-16T11:20:58.402Z,3444
2019-04-16T11:21:59.892Z,3436
2019-04-16T11:22:58.400Z,3436
2019-04-16T11:23:58.434Z,3432
2019-04-16T11:24:58.133Z,3420
2019-04-16T11:25:58.337Z,3416
2019-04-16T11:26:58.314Z,3412
2019-04-16T11:27:58.408Z,3416
2019-04-16T11:28:58.408Z,3424
2019-04-16T11:29:58.360Z,3420
2019-04-16T11:30:58.339Z,3408
2019-04-16T11:31:57.862Z,3396
2019-04-16T11:33:00.533Z,3380
2019-04-16T11:33:58.289Z,3372
2019-04-16T11:34:58.366Z,3380
2019-04-16T11:36:00.785Z,3392
2019-04-16T11:37:06.993Z,3392
2019-04-16T11:37:58.300Z,3388
2019-04-16T11:38:58.329Z,3392
2019-04-16T11:39:58.247Z,3392
2019-04-16T11:40:58.291Z,3388
2019-04-16T11:41:58.207Z,3380
2019-04-16T11:42:58.264Z,3372
2019-04-16T11:44:13.479Z,3360
2019-04-16T11:44:58.222Z,3348
2019-04-16T11:45:58.264Z,3336
2019-04-16T11:46:58.234Z,3324
2019-04-16T11:47:58.286Z,3320
2019-04-16T11:48:57.910Z,3320
2019-04-16T11:49:58.205Z,3316
2019-04-16T11:50:58.204Z,3312
2019-04-16T11:51:57.994Z,3312
2019-04-16T11:53:02.328Z,3296
2019-04-16T11:53:58.191Z,3288
2019-04-16T11:55:00.713Z,3276
2019-04-16T11:55:58.151Z,3272
2019-04-16T11:57:03.771Z,3268
2019-04-16T11:57:58.125Z,3264
2019-04-16T11:59:00.014Z,3268
2019-04-16T12:00:13.683Z,3272
2019-04-16T12:00:58.031Z,3272
2019-04-16T12:01:57.871Z,3264
2019-04-16T12:02:58.186Z,3248
2019-04-16T12:04:01.050Z,3232
2019-04-16T12:05:03.773Z,3220
2019-04-16T12:05:58.279Z,3220
2019-04-16T12:06:57.878Z,3212
2019-04-16T12:07:57.849Z,3204
2019-04-16T12:08:58.070Z,3196
2019-04-16T12:09:58.031Z,3184
2019-04-16T12:10:58.159Z,3176
2019-04-16T12:11:58.055Z,3168
2019-04-16T12:12:58.050Z,3156
2019-04-16T12:13:57.902Z,3148
2019-04-16T12:14:58.036Z,3140
2019-04-16T12:15:58.119Z,3132
2019-04-16T12:16:58.037Z,3116
2019-04-16T12:17:58.199Z,3104
2019-04-16T12:18:58.000Z,3088
2019-04-16T12:19:58.233Z,3080
2019-04-16T12:20:58.123Z,3076
2019-04-16T12:21:58.147Z,3080
2019-04-16T12:22:58.066Z,3080
2019-04-16T12:23:57.843Z,3080
2019-04-16T12:24:58.070Z,3076
2019-04-16T12:25:57.976Z,3068
2019-04-16T12:26:58.053Z,3064
2019-04-16T12:27:58.074Z,3056
2019-04-16T12:28:58.089Z,3052
2019-04-16T12:29:57.983Z,3044
2019-04-16T12:30:58.029Z,3040
2019-04-16T12:31:57.941Z,3036
2019-04-16T12:32:58.013Z,3032
2019-04-16T12:33:57.963Z,3032
2019-04-16T12:34:58.541Z,3032
2019-04-16T12:35:57.886Z,3032
2019-04-16T12:36:57.960Z,3020
2019-04-16T12:37:57.902Z,3016
2019-04-16T12:38:57.955Z,3016
2019-04-16T12:39:57.896Z,3012
2019-04-16T12:40:57.692Z,3020
2019-04-16T12:41:59.990Z,3016
2019-04-16T12:42:57.643Z,3012
2019-04-16T12:43:58.848Z,3004
2019-04-16T12:44:57.604Z,3008
2019-04-16T12:46:00.675Z,3012
2019-04-16T12:46:57.936Z,3024
2019-04-16T12:48:01.706Z,3032
2019-04-16T12:48:57.913Z,3036
2019-04-16T12:49:57.838Z,3044
2019-04-16T12:50:57.896Z,3060
2019-04-16T12:51:57.906Z,3060
2019-04-16T12:53:02.040Z,3064
2019-04-16T12:54:01.275Z,3056
2019-04-16T12:55:03.554Z,3052
2019-04-16T12:55:57.565Z,3052
2019-04-16T12:56:57.784Z,3056
2019-04-16T12:58:01.412Z,3060
2019-04-16T12:58:58.453Z,3068
2019-04-16T13:00:01.753Z,3068
2019-04-16T13:00:59.682Z,3068
2019-04-16T13:01:57.428Z,3060
2019-04-16T13:02:57.677Z,3052
2019-04-16T13:03:59.848Z,3044
2019-04-16T13:04:57.657Z,3040
2019-04-16T13:06:01.449Z,3036
2019-04-16T13:06:57.641Z,3036
2019-04-16T13:07:57.696Z,3032
2019-04-16T13:09:00.690Z,3032
2019-04-16T13:09:57.637Z,3028
2019-04-16T13:10:57.613Z,3024
2019-04-16T13:11:57.604Z,3024
2019-04-16T13:12:57.604Z,3024
2019-04-16T13:13:57.346Z,3020
2019-04-16T13:15:07.701Z,3016
2019-04-16T13:15:57.575Z,3016
2019-04-16T13:16:57.659Z,3020
2019-04-16T13:17:58.676Z,3012
2019-04-16T13:18:57.573Z,3004
2019-04-16T13:19:57.599Z,2996
2019-04-16T13:21:03.596Z,2992
2019-04-16T13:21:59.872Z,2992
2019-04-16T13:22:57.527Z,2992
2019-04-16T13:23:57.278Z,2984
2019-04-16T13:24:57.522Z,2976
2019-04-16T13:25:57.530Z,2964
2019-04-16T13:26:57.554Z,2960
2019-04-16T13:27:58.037Z,2956
2019-04-16T13:29:03.046Z,2948
2019-04-16T13:30:01.204Z,2944
2019-04-16T13:30:57.487Z,2940
2019-04-16T13:31:57.478Z,2940
2019-04-16T13:32:57.229Z,2944
2019-04-16T13:33:58.099Z,2936
2019-04-16T13:35:00.513Z,2932
2019-04-16T13:35:57.442Z,2924
2019-04-16T13:37:04.571Z,2916
2019-04-16T13:37:57.429Z,2908
2019-04-16T13:38:57.172Z,2908
2019-04-16T13:39:59.374Z,2904
2019-04-16T13:41:04.512Z,2900
2019-04-16T13:41:57.400Z,2892
2019-04-16T13:42:57.495Z,2880
2019-04-16T13:43:57.387Z,2872